Aviation Digital Data Service (ADDS)

Output produced by METARs form (1236 UTC 19 January 2019)
found at http://www.aviationweather.gov/metar/data/
 
Forecast for: GBYD (BANJUL/YUNDUM IN, GM)
Text: TAF GBYD 191130Z 1912/2018 02012KT CAVOK
Forecast period: 1200 UTC 19 January 2019 to 1800 UTC 20 January 2019
Forecast type: FROM: standard forecast or significant change
Winds: from the NNE (20 degrees) at 14 MPH (12 knots; 6.2 m/s)
Visibility: 6 or more miles 10+ km)
Ceiling: unknown
Clouds: missing
Weather: NSW  (no significant weather)